Auke Bay, Alaska
Current Conditions -  °F | °C
As of 3:53 PM on Friday 19 Dec 2014 (Local Time) from PAJN Reporting Station
Overcast Overcast  
Wind Chill: 31°   Ceiling: 8000
Heat Index: 31°   Visibility: 10mi
Dew Point: 30°   Wind: 0mph
Humidity: 96%   Direction: NA
Pressure: 29.27"   Gusts: NA
Location:  58.38°N, 134.67°W
Report Text: PAJN 200053Z 00000KT 10SM FEW011 BKN080 OVC200 M01/M01 A2927 RMK AO2 SLP910 T10061011
Loading
Personal Weather Stations






























Interactive Weather Map New forecast layout! Learn more

10-Day Weather Forecast

Advertisements
Track Severe Weather on mobile